Time;durP1;ratioP1;P1;durP2;ratioP2;P2;SDS_P1;SDS_P2;PMS_P1;PMS_P2;Temp;Humidity;BMP_temperature;BMP_pressure;BME280_temperature;BME280_humidity;BME280_pressure;Samples;Min_cycle;Max_cycle;Signal;HPM_P1;HPM_P2
2022/11/24 00:01:40;;;;;;;16.08;10.15;;;;;;;;;;5074013;28;20033;-73
2022/11/24 00:04:06;;;;;;;18.63;11.10;;;;;;;;;;5070844;28;20081;-74
2022/11/24 00:06:33;;;;;;;18.02;11.48;;;;;;;;;;5070863;28;20047;-74
2022/11/24 00:08:59;;;;;;;13.68;9.77;;;;;;;;;;5061941;28;20053;-73
2022/11/24 00:11:26;;;;;;;17.70;10.23;;;;;;;;;;5065636;28;20044;-73
2022/11/24 00:13:52;;;;;;;26.20;17.70;;;;;;;;;;5063268;28;20100;-73
2022/11/24 00:16:20;;;;;;;15.48;10.35;;;;;;;;;;5060482;28;20044;-73
2022/11/24 00:18:47;;;;;;;17.67;13.50;;;;;;;;;;5072844;28;20035;-73
2022/11/24 00:21:14;;;;;;;19.15;13.63;;;;;;;;;;5071190;28;20122;-74
2022/11/24 00:23:40;;;;;;;19.00;11.05;;;;;;;;;;5062325;28;20028;-73
2022/11/24 00:26:10;;;;;;;20.98;15.32;;;;;;;;;;5055465;28;20056;-73
2022/11/24 00:28:37;;;;;;;19.52;13.05;;;;;;;;;;5073249;28;20049;-73
2022/11/24 00:31:04;;;;;;;17.38;13.48;;;;;;;;;;5075562;28;20534;-74
2022/11/24 00:33:30;;;;;;;18.23;13.07;;;;;;;;;;5067409;28;20027;-73
2022/11/24 00:35:56;;;;;;;18.67;13.90;;;;;;;;;;5060454;28;21034;-73
2022/11/24 00:38:23;;;;;;;14.75;11.32;;;;;;;;;;5068619;28;20384;-74
2022/11/24 00:40:49;;;;;;;16.60;11.00;;;;;;;;;;5072968;28;20036;-73
2022/11/24 00:43:15;;;;;;;16.05;11.07;;;;;;;;;;5068491;28;20058;-74
2022/11/24 00:45:41;;;;;;;13.52;10.23;;;;;;;;;;5080512;28;20072;-73
2022/11/24 00:48:07;;;;;;;12.13;8.45;;;;;;;;;;5075123;28;20373;-73
2022/11/24 00:50:33;;;;;;;12.23;8.63;;;;;;;;;;5065210;28;20032;-73
2022/11/24 00:52:59;;;;;;;17.83;10.57;;;;;;;;;;5071739;28;20111;-73
2022/11/24 00:55:25;;;;;;;15.35;11.68;;;;;;;;;;5072860;28;20064;-73
2022/11/24 00:57:51;;;;;;;18.15;13.38;;;;;;;;;;5058295;28;20041;-74
2022/11/24 01:00:18;;;;;;;14.68;9.70;;;;;;;;;;5069155;28;20385;-74
2022/11/24 01:02:44;;;;;;;15.15;10.98;;;;;;;;;;5075313;28;20032;-73
2022/11/24 01:05:10;;;;;;;17.42;12.50;;;;;;;;;;5067365;28;20044;-73
2022/11/24 01:07:36;;;;;;;18.20;13.23;;;;;;;;;;5065368;28;20060;-74
2022/11/24 01:10:02;;;;;;;13.27;10.02;;;;;;;;;;5068158;28;20071;-73
2022/11/24 01:12:28;;;;;;;15.38;11.07;;;;;;;;;;5058044;28;20103;-73
2022/11/24 01:14:54;;;;;;;15.00;10.40;;;;;;;;;;5059495;28;20510;-74
2022/11/24 01:17:20;;;;;;;14.98;10.20;;;;;;;;;;5068670;28;20114;-74
2022/11/24 01:19:47;;;;;;;12.30;9.15;;;;;;;;;;5064126;28;20033;-74
2022/11/24 01:22:14;;;;;;;15.48;9.07;;;;;;;;;;5056913;28;20021;-73
2022/11/24 01:24:40;;;;;;;15.50;10.48;;;;;;;;;;5071030;28;20470;-73
2022/11/24 01:27:06;;;;;;;13.20;9.68;;;;;;;;;;5057037;28;20089;-74
2022/11/24 01:29:32;;;;;;;13.27;9.05;;;;;;;;;;5079437;28;20077;-73
2022/11/24 01:31:58;;;;;;;12.00;8.55;;;;;;;;;;5069674;28;20039;-73
2022/11/24 01:34:24;;;;;;;9.38;6.15;;;;;;;;;;5065003;28;20028;-73
2022/11/24 01:36:50;;;;;;;12.07;7.72;;;;;;;;;;5059933;28;20024;-73
2022/11/24 01:39:16;;;;;;;14.05;10.15;;;;;;;;;;5065632;28;20105;-74
2022/11/24 01:41:42;;;;;;;12.65;8.77;;;;;;;;;;5073115;28;20780;-73
2022/11/24 01:44:21;;;;;;;13.90;10.13;;;;;;;;;;5069582;28;20043;-73
2022/11/24 01:46:49;;;;;;;9.27;6.22;;;;;;;;;;5069559;28;20621;-73
2022/11/24 01:49:19;;;;;;;9.55;5.35;;;;;;;;;;5058978;28;20083;-73
2022/11/24 01:51:51;;;;;;;12.13;4.85;;;;;;;;;;5071423;28;20367;-74
2022/11/24 01:54:23;;;;;;;8.43;3.97;;;;;;;;;;5076269;28;20028;-73
2022/11/24 01:56:51;;;;;;;9.55;6.18;;;;;;;;;;5062674;28;20040;-73
2022/11/24 01:59:18;;;;;;;10.32;6.18;;;;;;;;;;5063003;28;20213;-74
2022/11/24 02:01:45;;;;;;;10.40;6.25;;;;;;;;;;5066470;28;20534;-73
2022/11/24 02:04:15;;;;;;;9.98;7.03;;;;;;;;;;5062831;28;20040;-73
2022/11/24 02:06:42;;;;;;;9.77;6.10;;;;;;;;;;5066655;28;20044;-73
2022/11/24 02:09:31;;;;;;;10.00;6.10;;;;;;;;;;5069480;28;20509;-73
2022/11/24 02:11:59;;;;;;;10.13;5.85;;;;;;;;;;5033082;28;20060;-73
2022/11/24 02:14:26;;;;;;;11.82;6.30;;;;;;;;;;5068661;28;20743;-74
2022/11/24 02:16:52;;;;;;;10.25;6.72;;;;;;;;;;5064022;28;20041;-74
2022/11/24 02:19:18;;;;;;;11.63;8.10;;;;;;;;;;5069090;28;20390;-73
2022/11/24 02:21:44;;;;;;;14.98;8.98;;;;;;;;;;5067936;28;20040;-73
2022/11/24 02:24:14;;;;;;;13.20;7.22;;;;;;;;;;5075362;28;20060;-73
2022/11/24 02:26:40;;;;;;;10.20;7.20;;;;;;;;;;5078369;28;20052;-73
2022/11/24 02:29:06;;;;;;;12.18;7.43;;;;;;;;;;5067849;28;20043;-73
2022/11/24 02:31:33;;;;;;;9.85;5.18;;;;;;;;;;5075885;28;20044;-74
2022/11/24 02:33:59;;;;;;;9.90;5.25;;;;;;;;;;5067270;28;20016;-73
2022/11/24 02:36:24;;;;;;;10.57;5.25;;;;;;;;;;5069262;28;20036;-73
2022/11/24 02:38:50;;;;;;;9.30;5.47;;;;;;;;;;5069767;28;20516;-73
2022/11/24 02:41:21;;;;;;;9.27;5.43;;;;;;;;;;5074749;28;20040;-73
2022/11/24 02:43:57;;;;;;;10.82;6.05;;;;;;;;;;5072966;28;20032;-74
2022/11/24 02:46:24;;;;;;;10.60;6.90;;;;;;;;;;5056260;28;20047;-73
2022/11/24 02:48:50;;;;;;;12.70;7.22;;;;;;;;;;5061430;28;20107;-73
2022/11/24 02:51:16;;;;;;;12.15;6.97;;;;;;;;;;5072167;28;20044;-74
2022/11/24 02:53:42;;;;;;;11.77;7.70;;;;;;;;;;5073853;28;20032;-74
2022/11/24 02:56:08;;;;;;;13.98;9.13;;;;;;;;;;5062479;28;20041;-74
2022/11/24 02:58:34;;;;;;;13.20;8.68;;;;;;;;;;5069697;28;20481;-74
2022/11/24 03:01:00;;;;;;;14.95;10.32;;;;;;;;;;5069812;28;20037;-74
2022/11/24 03:03:26;;;;;;;16.15;11.05;;;;;;;;;;5069854;28;20036;-73
2022/11/24 03:05:53;;;;;;;8.35;5.28;;;;;;;;;;5060495;28;20662;-73
2022/11/24 03:08:19;;;;;;;8.43;5.03;;;;;;;;;;5066981;28;20070;-73
2022/11/24 03:10:45;;;;;;;6.95;4.55;;;;;;;;;;5070647;28;20112;-74
2022/11/24 03:13:11;;;;;;;7.70;3.45;;;;;;;;;;5070256;28;20028;-74
2022/11/24 03:15:37;;;;;;;6.28;3.20;;;;;;;;;;5065198;28;20043;-74
2022/11/24 03:18:03;;;;;;;6.85;3.30;;;;;;;;;;5053958;28;20025;-74
2022/11/24 03:20:29;;;;;;;7.28;4.30;;;;;;;;;;5057600;28;20045;-74
2022/11/24 03:22:56;;;;;;;9.13;4.63;;;;;;;;;;5073603;28;20031;-73
2022/11/24 03:25:21;;;;;;;9.68;5.68;;;;;;;;;;5063738;28;20078;-73
2022/11/24 03:27:47;;;;;;;11.20;4.75;;;;;;;;;;5070783;28;20032;-74
2022/11/24 03:30:14;;;;;;;12.32;5.07;;;;;;;;;;5064033;28;20565;-74
2022/11/24 03:32:40;;;;;;;8.98;5.20;;;;;;;;;;5056998;28;20025;-73
2022/11/24 03:35:07;;;;;;;9.38;4.55;;;;;;;;;;5054885;28;20525;-74
2022/11/24 03:37:33;;;;;;;9.52;4.55;;;;;;;;;;5055729;28;20071;-74
2022/11/24 03:39:59;;;;;;;9.95;4.88;;;;;;;;;;5067355;28;20036;-74
2022/11/24 03:42:25;;;;;;;10.02;5.65;;;;;;;;;;5050977;28;20033;-74
2022/11/24 03:44:51;;;;;;;11.00;5.55;;;;;;;;;;5069788;28;20078;-74
2022/11/24 03:47:17;;;;;;;9.00;5.05;;;;;;;;;;5069207;28;20131;-74
2022/11/24 03:49:43;;;;;;;10.35;5.55;;;;;;;;;;5060240;28;20033;-74
2022/11/24 03:52:09;;;;;;;12.90;5.97;;;;;;;;;;5059390;28;20032;-74
2022/11/24 03:54:35;;;;;;;10.32;5.72;;;;;;;;;;5056666;28;20028;-74
2022/11/24 03:57:01;;;;;;;18.40;9.38;;;;;;;;;;5067282;28;20032;-73
2022/11/24 03:59:27;;;;;;;14.75;6.25;;;;;;;;;;5075210;28;20020;-74
2022/11/24 04:01:53;;;;;;;9.07;4.47;;;;;;;;;;5079411;28;20043;-74
2022/11/24 04:04:19;;;;;;;7.28;4.18;;;;;;;;;;5080473;28;20035;-74
2022/11/24 04:06:45;;;;;;;9.95;4.65;;;;;;;;;;5078306;28;20032;-74
2022/11/24 04:09:11;;;;;;;12.73;4.57;;;;;;;;;;5074844;28;20111;-73
2022/11/24 04:14:22;;;;;;;8.60;3.60;;;;;;;;;;5066479;28;20048;-73
2022/11/24 04:16:48;;;;;;;10.88;3.67;;;;;;;;;;5075879;28;20025;-74
2022/11/24 04:19:14;;;;;;;10.25;3.35;;;;;;;;;;5066457;28;20100;-74
2022/11/24 04:21:40;;;;;;;8.27;3.10;;;;;;;;;;5081658;28;20039;-74
2022/11/24 04:24:06;;;;;;;7.95;2.72;;;;;;;;;;5087091;28;20071;-74
2022/11/24 04:26:32;;;;;;;10.77;2.53;;;;;;;;;;5064206;28;20146;-73
2022/11/24 04:28:58;;;;;;;6.75;2.22;;;;;;;;;;5073624;28;20111;-73
2022/11/24 04:31:24;;;;;;;16.17;7.25;;;;;;;;;;5069988;28;20036;-74
2022/11/24 04:33:50;;;;;;;17.15;7.40;;;;;;;;;;5076950;28;20036;-73
2022/11/24 04:36:16;;;;;;;68.82;40.30;;;;;;;;;;5067933;28;20037;-74
2022/11/24 04:38:42;;;;;;;38.47;21.67;;;;;;;;;;5067161;28;20649;-74
2022/11/24 04:41:08;;;;;;;21.40;13.20;;;;;;;;;;5064783;28;20040;-74
2022/11/24 04:43:34;;;;;;;16.90;7.13;;;;;;;;;;5070316;28;20028;-73
2022/11/24 04:46:00;;;;;;;12.13;6.88;;;;;;;;;;5082705;28;20036;-73
2022/11/24 04:48:27;;;;;;;41.08;25.25;;;;;;;;;;5073341;28;20085;-74
2022/11/24 04:50:53;;;;;;;13.38;6.80;;;;;;;;;;5069694;28;20041;-74
2022/11/24 04:53:19;;;;;;;16.77;6.43;;;;;;;;;;5078459;28;20044;-74
2022/11/24 04:55:45;;;;;;;7.55;3.42;;;;;;;;;;5077081;28;20036;-74
2022/11/24 04:58:11;;;;;;;7.88;3.72;;;;;;;;;;5076214;28;20031;-74
2022/11/24 05:00:38;;;;;;;10.43;3.60;;;;;;;;;;5065533;28;20067;-74
2022/11/24 05:03:04;;;;;;;9.38;3.97;;;;;;;;;;5080282;28;20124;-73
2022/11/24 05:05:30;;;;;;;10.77;3.88;;;;;;;;;;5070885;28;20040;-73
2022/11/24 05:07:58;;;;;;;10.30;3.13;;;;;;;;;;5074410;28;20082;-74
2022/11/24 05:10:33;;;;;;;6.63;2.67;;;;;;;;;;5076753;28;20663;-74
2022/11/24 05:13:00;;;;;;;9.27;3.10;;;;;;;;;;5064781;28;20481;-74
2022/11/24 05:15:26;;;;;;;8.73;3.78;;;;;;;;;;5071290;28;20042;-73
2022/11/24 05:17:53;;;;;;;13.00;3.33;;;;;;;;;;5071167;28;20741;-73
2022/11/24 05:20:19;;;;;;;11.75;2.95;;;;;;;;;;5061133;28;20033;-74
2022/11/24 05:22:45;;;;;;;11.30;3.28;;;;;;;;;;5065762;28;20027;-74
2022/11/24 05:25:14;;;;;;;13.75;4.53;;;;;;;;;;5062874;28;20079;-74
2022/11/24 05:27:40;;;;;;;6.63;3.03;;;;;;;;;;5069270;28;20037;-74
2022/11/24 05:30:07;;;;;;;9.48;2.90;;;;;;;;;;5066793;28;20055;-74
2022/11/24 05:32:33;;;;;;;6.60;2.88;;;;;;;;;;5071154;28;20028;-73
2022/11/24 05:35:01;;;;;;;10.23;2.67;;;;;;;;;;5066303;28;20075;-73
2022/11/24 05:37:30;;;;;;;13.13;3.33;;;;;;;;;;5061276;28;20032;-73
2022/11/24 05:39:56;;;;;;;8.85;2.50;;;;;;;;;;5079123;28;20025;-74
2022/11/24 05:42:41;;;;;;;8.70;3.42;;;;;;;;;;5071767;28;20115;-74
2022/11/24 05:45:17;;;;;;;9.38;3.63;;;;;;;;;;5059552;28;20037;-74
2022/11/24 05:47:43;;;;;;;7.30;3.10;;;;;;;;;;5072905;28;20981;-73
2022/11/24 05:50:10;;;;;;;10.27;2.80;;;;;;;;;;5069642;28;20076;-73
2022/11/24 05:52:36;;;;;;;8.95;2.50;;;;;;;;;;5068069;28;20020;-73
2022/11/24 05:55:02;;;;;;;7.07;3.03;;;;;;;;;;5065212;28;20071;-73
2022/11/24 05:57:28;;;;;;;14.23;4.00;;;;;;;;;;5066462;28;20028;-74
2022/11/24 05:59:54;;;;;;;7.53;3.00;;;;;;;;;;5065863;28;20029;-74
2022/11/24 06:02:20;;;;;;;9.82;3.15;;;;;;;;;;5060805;28;20033;-74
2022/11/24 06:04:46;;;;;;;11.35;4.63;;;;;;;;;;5073617;28;20087;-73
2022/11/24 06:07:12;;;;;;;14.95;4.53;;;;;;;;;;5068926;28;20817;-73
2022/11/24 06:09:39;;;;;;;10.68;4.57;;;;;;;;;;5062733;28;20032;-74
2022/11/24 06:12:09;;;;;;;9.98;3.83;;;;;;;;;;5065441;28;20040;-73
2022/11/24 06:14:36;;;;;;;10.50;3.55;;;;;;;;;;5073980;28;20031;-73
2022/11/24 06:17:02;;;;;;;10.48;3.80;;;;;;;;;;5076572;28;20032;-73
2022/11/24 06:19:28;;;;;;;9.35;3.53;;;;;;;;;;5053721;28;20028;-74
2022/11/24 06:21:54;;;;;;;12.07;5.47;;;;;;;;;;5057790;28;20370;-74
2022/11/24 06:24:20;;;;;;;28.88;19.17;;;;;;;;;;5061000;28;20032;-73
2022/11/24 06:26:46;;;;;;;13.27;5.78;;;;;;;;;;5060162;28;20056;-74
2022/11/24 06:29:12;;;;;;;6.63;2.03;;;;;;;;;;5064462;28;20040;-73
2022/11/24 06:31:38;;;;;;;8.27;3.08;;;;;;;;;;5062266;28;20477;-73
2022/11/24 06:34:10;;;;;;;4.53;2.17;;;;;;;;;;5062968;28;20154;-75
2022/11/24 06:36:36;;;;;;;6.00;3.50;;;;;;;;;;5062405;28;20032;-74
2022/11/24 06:39:02;;;;;;;12.80;3.60;;;;;;;;;;5061550;28;20359;-74
2022/11/24 06:41:28;;;;;;;11.25;4.13;;;;;;;;;;5062145;28;20120;-74
2022/11/24 06:43:54;;;;;;;7.65;2.75;;;;;;;;;;5052905;28;20112;-75
2022/11/24 06:46:21;;;;;;;7.43;3.33;;;;;;;;;;5063931;28;20116;-74
2022/11/24 06:48:47;;;;;;;12.23;2.72;;;;;;;;;;5059297;28;20028;-75
2022/11/24 06:51:13;;;;;;;7.80;2.65;;;;;;;;;;5064176;28;20059;-75
2022/11/24 06:53:39;;;;;;;9.80;2.03;;;;;;;;;;5062408;28;20025;-74
2022/11/24 06:56:06;;;;;;;11.50;2.20;;;;;;;;;;5070849;28;20032;-75
2022/11/24 06:58:32;;;;;;;8.65;3.50;;;;;;;;;;5071258;28;20367;-74
2022/11/24 07:00:58;;;;;;;13.82;4.55;;;;;;;;;;5054785;28;20124;-75
2022/11/24 07:03:24;;;;;;;11.48;4.95;;;;;;;;;;5066607;28;20039;-74
2022/11/24 07:05:57;;;;;;;12.55;6.18;;;;;;;;;;5070398;28;20044;-75
2022/11/24 07:08:23;;;;;;;13.85;5.82;;;;;;;;;;5059120;28;20025;-74
2022/11/24 07:10:49;;;;;;;16.23;8.93;;;;;;;;;;5066276;28;20041;-74
2022/11/24 07:13:15;;;;;;;12.90;6.72;;;;;;;;;;5065909;28;20025;-74
2022/11/24 07:15:41;;;;;;;15.52;7.28;;;;;;;;;;5061378;28;20043;-74
2022/11/24 07:18:07;;;;;;;16.10;7.07;;;;;;;;;;5066032;28;20032;-74
2022/11/24 07:20:33;;;;;;;14.57;5.65;;;;;;;;;;5062138;28;20390;-74
2022/11/24 07:22:59;;;;;;;20.80;9.90;;;;;;;;;;5069183;28;20025;-74
2022/11/24 07:25:25;;;;;;;18.45;8.82;;;;;;;;;;5067034;28;20036;-74
2022/11/24 07:27:58;;;;;;;15.70;8.88;;;;;;;;;;5065583;28;20029;-75
2022/11/24 07:30:24;;;;;;;64.85;33.20;;;;;;;;;;5057908;28;20874;-74
2022/11/24 07:32:50;;;;;;;23.50;10.85;;;;;;;;;;5067048;28;20030;-74
2022/11/24 07:35:16;;;;;;;19.67;7.85;;;;;;;;;;5066363;28;20040;-74
2022/11/24 07:37:42;;;;;;;9.85;2.58;;;;;;;;;;5064117;28;20362;-74
2022/11/24 07:40:09;;;;;;;11.52;3.00;;;;;;;;;;5059354;28;20773;-74
2022/11/24 07:42:35;;;;;;;10.13;3.15;;;;;;;;;;5059666;28;20024;-74
2022/11/24 07:45:01;;;;;;;8.10;3.20;;;;;;;;;;5058602;28;20028;-74
2022/11/24 07:47:27;;;;;;;17.80;6.40;;;;;;;;;;5066415;28;20473;-74
2022/11/24 07:49:53;;;;;;;24.58;14.45;;;;;;;;;;5063964;28;20043;-73
2022/11/24 07:52:19;;;;;;;23.15;12.57;;;;;;;;;;5068575;28;20025;-74
2022/11/24 07:54:45;;;;;;;13.50;4.68;;;;;;;;;;5054074;28;20035;-74
2022/11/24 07:57:11;;;;;;;14.68;5.60;;;;;;;;;;5061946;28;20471;-74
2022/11/24 07:59:37;;;;;;;25.23;10.18;;;;;;;;;;5068142;28;20039;-74
2022/11/24 08:02:03;;;;;;;23.23;12.45;;;;;;;;;;5071805;28;20032;-74
2022/11/24 08:04:29;;;;;;;16.45;6.47;;;;;;;;;;5064116;28;20035;-74
2022/11/24 08:06:55;;;;;;;20.17;6.82;;;;;;;;;;5067582;28;20036;-74
2022/11/24 08:09:21;;;;;;;16.85;4.20;;;;;;;;;;5072678;28;20036;-74
2022/11/24 08:11:47;;;;;;;14.80;5.88;;;;;;;;;;5065728;28;20037;-74
2022/11/24 08:14:13;;;;;;;19.83;8.75;;;;;;;;;;5063903;28;20923;-74
2022/11/24 08:16:39;;;;;;;25.38;10.52;;;;;;;;;;5061743;28;20037;-74
2022/11/24 08:19:05;;;;;;;22.48;10.57;;;;;;;;;;5065538;28;20412;-74
2022/11/24 08:21:31;;;;;;;19.30;7.70;;;;;;;;;;5056288;28;20037;-74
2022/11/24 08:23:57;;;;;;;15.63;5.78;;;;;;;;;;5068383;28;20692;-74
2022/11/24 08:26:24;;;;;;;16.88;4.22;;;;;;;;;;5069746;28;20109;-74
2022/11/24 08:28:53;;;;;;;16.50;4.57;;;;;;;;;;5067017;28;20032;-74
2022/11/24 08:31:19;;;;;;;15.20;5.30;;;;;;;;;;5063795;28;20055;-74
2022/11/24 08:33:45;;;;;;;14.95;4.43;;;;;;;;;;5061370;28;20024;-74
2022/11/24 08:36:12;;;;;;;12.05;3.97;;;;;;;;;;5064053;28;20060;-74
2022/11/24 08:38:38;;;;;;;9.50;1.50;;;;;;;;;;5067027;28;20029;-74
2022/11/24 08:41:06;;;;;;;7.20;1.75;;;;;;;;;;5059232;28;20503;-74
2022/11/24 08:43:32;;;;;;;13.95;4.78;;;;;;;;;;5051764;28;20029;-74
2022/11/24 08:46:02;;;;;;;16.95;5.80;;;;;;;;;;5066690;28;20029;-74
2022/11/24 08:48:28;;;;;;;16.25;5.50;;;;;;;;;;5067390;28;20645;-74
2022/11/24 08:50:54;;;;;;;11.05;3.63;;;;;;;;;;5072672;28;20036;-74
2022/11/24 08:53:20;;;;;;;17.08;4.40;;;;;;;;;;5071798;28;20462;-74
2022/11/24 08:55:46;;;;;;;10.25;3.80;;;;;;;;;;5073126;28;20032;-74
2022/11/24 08:58:12;;;;;;;7.40;2.03;;;;;;;;;;5065198;28;20071;-74
2022/11/24 09:00:38;;;;;;;11.10;2.15;;;;;;;;;;5065317;28;20032;-74
2022/11/24 09:03:04;;;;;;;12.15;2.45;;;;;;;;;;5066127;28;20086;-74
2022/11/24 09:05:32;;;;;;;4.88;1.40;;;;;;;;;;5063511;28;20067;-74
2022/11/24 09:07:58;;;;;;;7.20;2.20;;;;;;;;;;5069934;28;20409;-74
2022/11/24 09:10:24;;;;;;;12.27;2.92;;;;;;;;;;5069768;28;20039;-74
2022/11/24 09:12:51;;;;;;;10.10;3.17;;;;;;;;;;5063652;28;20436;-74
2022/11/24 09:15:19;;;;;;;10.00;1.92;;;;;;;;;;5058417;28;20412;-74
2022/11/24 09:17:45;;;;;;;9.13;2.40;;;;;;;;;;5067493;28;20025;-74
2022/11/24 09:20:11;;;;;;;7.97;2.85;;;;;;;;;;5066626;28;20052;-74
2022/11/24 09:22:37;;;;;;;10.85;4.18;;;;;;;;;;5060828;28;20124;-74
2022/11/24 09:25:04;;;;;;;16.88;7.30;;;;;;;;;;5065703;28;20060;-74
2022/11/24 09:27:30;;;;;;;16.60;8.10;;;;;;;;;;5069896;28;20058;-75
2022/11/24 09:29:56;;;;;;;11.35;3.63;;;;;;;;;;5063940;28;20021;-74
2022/11/24 09:32:22;;;;;;;8.43;2.35;;;;;;;;;;5063749;28;20111;-74
2022/11/24 09:34:50;;;;;;;9.85;3.15;;;;;;;;;;5067980;28;20073;-74
2022/11/24 09:37:16;;;;;;;13.55;3.03;;;;;;;;;;5055918;28;20031;-74
2022/11/24 09:39:42;;;;;;;11.52;4.57;;;;;;;;;;5060524;28;20036;-74
2022/11/24 09:42:35;;;;;;;14.70;4.63;;;;;;;;;;5063893;28;20086;-74
2022/11/24 09:45:00;;;;;;;;;;;;;;;;;;5061357;28;20143;-74
2022/11/24 09:47:35;;;;;;;18.73;6.15;;;;;;;;;;5067121;28;20494;-74
2022/11/24 09:50:04;;;;;;;15.80;4.65;;;;;;;;;;5064083;28;20162;-74
2022/11/24 09:52:49;;;;;;;20.70;9.30;;;;;;;;;;5069033;28;20040;-74
2022/11/24 09:55:28;;;;;;;29.50;19.45;;;;;;;;;;5066141;28;20024;-74
2022/11/24 09:58:18;;;;;;;21.17;8.65;;;;;;;;;;5065129;28;20031;-74
2022/11/24 10:00:44;;;;;;;12.60;2.17;;;;;;;;;;5035298;28;20173;-75
2022/11/24 10:03:15;;;;;;;11.98;3.33;;;;;;;;;;5055135;28;20401;-74
2022/11/24 10:05:42;;;;;;;8.85;2.40;;;;;;;;;;5064866;28;20040;-74
2022/11/24 10:08:17;;;;;;;13.48;2.30;;;;;;;;;;5067261;28;20095;-74
2022/11/24 10:11:04;;;;;;;8.27;1.67;;;;;;;;;;5062080;28;20123;-74
2022/11/24 10:13:36;;;;;;;9.13;2.35;;;;;;;;;;5062551;28;20040;-74
2022/11/24 10:16:17;;;;;;;12.20;3.40;;;;;;;;;;5062183;28;20131;-75
2022/11/24 10:18:46;;;;;;;13.15;5.35;;;;;;;;;;5072221;28;20065;-74
2022/11/24 10:21:12;;;;;;;11.30;4.85;;;;;;;;;;5058273;28;20864;-74
2022/11/24 10:23:57;;;;;;;16.02;3.78;;;;;;;;;;5062143;28;20072;-74
2022/11/24 10:26:31;;;;;;;23.38;8.48;;;;;;;;;;5062497;28;20044;-74
2022/11/24 10:28:57;;;;;;;10.73;5.00;;;;;;;;;;5058104;28;20048;-74
2022/11/24 10:31:34;;;;;;;13.63;4.03;;;;;;;;;;5061333;28;20040;-74
2022/11/24 10:34:09;;;;;;;13.40;3.22;;;;;;;;;;5069714;28;20718;-74
2022/11/24 10:36:43;;;;;;;13.50;2.90;;;;;;;;;;5067296;28;20020;-74
2022/11/24 10:39:17;;;;;;;17.13;5.68;;;;;;;;;;5062165;28;20036;-75
2022/11/24 10:41:47;;;;;;;18.38;9.40;;;;;;;;;;5060467;28;20764;-74
2022/11/24 10:44:14;;;;;;;16.48;4.93;;;;;;;;;;5071517;28;20040;-74
2022/11/24 10:46:40;;;;;;;13.88;2.65;;;;;;;;;;5071416;28;20033;-74
2022/11/24 10:49:06;;;;;;;11.35;2.22;;;;;;;;;;5059939;28;20044;-74
2022/11/24 10:51:32;;;;;;;12.23;2.00;;;;;;;;;;5065874;28;20081;-74
2022/11/24 10:54:09;;;;;;;9.30;2.38;;;;;;;;;;5062724;28;20694;-74
2022/11/24 10:56:40;;;;;;;11.90;4.35;;;;;;;;;;5061938;28;20021;-74
2022/11/24 10:59:29;;;;;;;14.18;4.65;;;;;;;;;;5069781;28;20443;-74
2022/11/24 11:01:55;;;;;;;12.68;4.25;;;;;;;;;;5052714;28;20062;-74
2022/11/24 11:04:24;;;;;;;13.45;3.05;;;;;;;;;;5065017;28;20037;-74
2022/11/24 11:06:50;;;;;;;14.77;3.67;;;;;;;;;;5061638;28;20025;-74
2022/11/24 11:09:18;;;;;;;9.57;4.18;;;;;;;;;;5061225;28;20043;-74
2022/11/24 11:11:48;;;;;;;13.20;1.90;;;;;;;;;;5066405;28;20085;-75
2022/11/24 11:14:30;;;;;;;10.18;2.55;;;;;;;;;;5059903;28;20459;-74
2022/11/24 11:16:57;;;;;;;10.98;2.45;;;;;;;;;;5061022;28;20028;-74
2022/11/24 11:19:42;;;;;;;14.10;3.05;;;;;;;;;;5064417;28;20873;-74
2022/11/24 11:22:11;;;;;;;11.10;2.05;;;;;;;;;;5076202;28;20595;-75
2022/11/24 11:24:46;;;;;;;10.52;2.20;;;;;;;;;;5066451;28;20044;-74
2022/11/24 11:27:16;;;;;;;9.00;1.48;;;;;;;;;;5062192;28;20064;-74
2022/11/24 11:29:42;;;;;;;8.27;1.45;;;;;;;;;;5060863;28;20032;-75
2022/11/24 11:32:34;;;;;;;9.13;1.60;;;;;;;;;;5066055;28;20040;-74
2022/11/24 11:35:00;;;;;;;6.53;1.27;;;;;;;;;;5049687;28;20041;-74
2022/11/24 11:37:28;;;;;;;49.83;20.08;;;;;;;;;;5055825;28;20039;-74
2022/11/24 11:39:54;;;;;;;23.23;9.30;;;;;;;;;;5062143;28;20127;-74
2022/11/24 11:42:23;;;;;;;32.78;14.45;;;;;;;;;;5064027;28;20474;-75
2022/11/24 11:45:06;;;;;;;29.35;14.35;;;;;;;;;;5064801;28;20020;-75
2022/11/24 11:47:40;;;;;;;13.88;6.43;;;;;;;;;;5070677;28;20062;-74
2022/11/24 11:50:12;;;;;;;8.27;1.95;;;;;;;;;;5063518;28;20033;-75
2022/11/24 11:52:46;;;;;;;8.07;1.58;;;;;;;;;;5066604;28;20056;-74
2022/11/24 11:55:30;;;;;;;5.70;1.45;;;;;;;;;;5067326;28;20126;-75
2022/11/24 11:58:16;;;;;;;6.15;1.15;;;;;;;;;;5074265;28;20028;-74
2022/11/24 12:01:04;;;;;;;6.55;1.08;;;;;;;;;;5066656;28;20556;-74
2022/11/24 12:03:39;;;;;;;5.15;0.68;;;;;;;;;;5061755;28;20056;-74
2022/11/24 12:06:14;;;;;;;6.57;1.20;;;;;;;;;;5061973;28;20027;-75
2022/11/24 12:08:48;;;;;;;11.07;2.42;;;;;;;;;;5067016;28;20033;-74
2022/11/24 12:11:33;;;;;;;9.10;2.33;;;;;;;;;;5066498;28;20079;-75
2022/11/24 12:14:17;;;;;;;7.07;1.42;;;;;;;;;;5064648;28;20028;-75
2022/11/24 12:16:47;;;;;;;7.93;1.10;;;;;;;;;;5062150;28;20028;-75
2022/11/24 12:19:27;;;;;;;9.40;0.80;;;;;;;;;;5056266;28;20040;-75
2022/11/24 12:21:56;;;;;;;5.95;1.00;;;;;;;;;;5070550;28;20107;-74
2022/11/24 12:24:33;;;;;;;4.38;0.55;;;;;;;;;;5065955;28;20048;-74
2022/11/24 12:27:11;;;;;;;4.55;1.02;;;;;;;;;;5065695;28;20490;-75
2022/11/24 12:29:37;;;;;;;5.55;1.00;;;;;;;;;;5071209;28;20039;-74
2022/11/24 12:32:15;;;;;;;5.25;1.20;;;;;;;;;;5070882;28;20039;-75
2022/11/24 12:34:47;;;;;;;8.93;1.52;;;;;;;;;;5065255;28;20463;-75
2022/11/24 12:37:13;;;;;;;;;;;;;;;;;;5064106;28;20025;-75
2022/11/24 12:39:48;;;;;;;4.72;1.80;;;;;;;;;;5057547;28;19935;-74
2022/11/24 12:42:24;;;;;;;8.55;1.17;;;;;;;;;;5059820;28;20078;-74
2022/11/24 12:45:05;;;;;;;5.28;1.13;;;;;;;;;;5059363;28;20029;-74
2022/11/24 12:47:34;;;;;;;9.88;1.25;;;;;;;;;;5063770;28;20087;-75
2022/11/24 12:50:00;;;;;;;8.32;1.38;;;;;;;;;;5062131;28;20029;-75
2022/11/24 12:52:38;;;;;;;7.00;1.38;;;;;;;;;;5067643;28;20047;-74
2022/11/24 12:55:04;;;;;;;5.13;0.70;;;;;;;;;;5065337;28;20144;-75
2022/11/24 12:57:30;;;;;;;4.95;1.20;;;;;;;;;;5067323;28;20425;-74
2022/11/24 12:59:56;;;;;;;7.28;1.08;;;;;;;;;;5069842;28;20032;-74
2022/11/24 13:02:34;;;;;;;9.02;1.20;;;;;;;;;;5061851;28;20040;-74
2022/11/24 13:05:00;;;;;;;10.05;2.28;;;;;;;;;;5060828;28;20024;-75
2022/11/24 13:07:36;;;;;;;5.95;0.80;;;;;;;;;;5068232;28;20048;-74
2022/11/24 13:10:21;;;;;;;5.40;0.95;;;;;;;;;;5063229;28;20021;-74
2022/11/24 13:12:54;;;;;;;5.60;0.95;;;;;;;;;;5068734;28;20115;-74
2022/11/24 13:15:20;;;;;;;5.28;1.05;;;;;;;;;;5072647;28;20024;-74
2022/11/24 13:17:46;;;;;;;7.80;1.30;;;;;;;;;;5062412;28;20028;-75
2022/11/24 13:20:15;;;;;;;7.40;1.10;;;;;;;;;;5065109;28;20585;-74
2022/11/24 13:22:46;;;;;;;5.80;0.73;;;;;;;;;;5066617;28;20066;-75
2022/11/24 13:25:12;;;;;;;7.38;0.90;;;;;;;;;;5070755;28;20025;-75
2022/11/24 13:27:39;;;;;;;6.75;0.77;;;;;;;;;;5061595;28;20485;-74
2022/11/24 13:30:26;;;;;;;6.97;1.15;;;;;;;;;;5065758;28;20067;-74
2022/11/24 13:33:12;;;;;;;8.88;1.70;;;;;;;;;;5021422;28;20033;-74
2022/11/24 13:35:39;;;;;;;8.07;1.92;;;;;;;;;;5058103;28;20041;-75
2022/11/24 13:38:23;;;;;;;12.60;2.65;;;;;;;;;;5066685;28;20151;-74
2022/11/24 13:40:49;;;;;;;10.88;4.80;;;;;;;;;;5068861;28;20653;-74
2022/11/24 13:43:15;;;;;;;19.00;5.10;;;;;;;;;;5065014;28;20036;-74
2022/11/24 13:45:43;;;;;;;11.52;4.60;;;;;;;;;;5069058;28;20035;-75
2022/11/24 13:48:18;;;;;;;11.80;3.15;;;;;;;;;;5069079;28;20040;-75
2022/11/24 13:50:53;;;;;;;7.28;2.17;;;;;;;;;;5050690;28;20071;-74
2022/11/24 13:53:34;;;;;;;10.77;2.85;;;;;;;;;;5065677;28;20367;-74
2022/11/24 13:56:03;;;;;;;8.07;1.92;;;;;;;;;;5068285;28;20043;-74
2022/11/24 13:58:50;;;;;;;7.55;1.77;;;;;;;;;;5070854;28;20373;-74
2022/11/24 14:01:19;;;;;;;12.55;2.13;;;;;;;;;;5071085;28;20127;-74
2022/11/24 14:04:03;;;;;;;9.48;2.85;;;;;;;;;;5070448;28;20050;-74
2022/11/24 14:06:31;;;;;;;8.88;1.80;;;;;;;;;;5058369;28;20044;-74
2022/11/24 14:08:58;;;;;;;14.95;2.38;;;;;;;;;;5062586;28;20044;-74
2022/11/24 14:11:25;;;;;;;9.68;2.00;;;;;;;;;;5068166;28;20720;-74
2022/11/24 14:13:52;;;;;;;5.85;1.67;;;;;;;;;;5067823;28;20025;-74
2022/11/24 14:16:19;;;;;;;9.98;2.20;;;;;;;;;;5069163;28;20032;-74
2022/11/24 14:18:47;;;;;;;8.48;1.65;;;;;;;;;;5060645;28;20035;-74
2022/11/24 14:21:30;;;;;;;13.75;2.15;;;;;;;;;;5074860;28;20037;-74
2022/11/24 14:23:59;;;;;;;11.15;2.45;;;;;;;;;;5066715;28;20546;-74
2022/11/24 14:26:28;;;;;;;7.32;1.35;;;;;;;;;;5068018;28;20131;-74
2022/11/24 14:29:02;;;;;;;9.27;1.50;;;;;;;;;;5069438;28;20038;-74
2022/11/24 14:31:28;;;;;;;8.88;1.30;;;;;;;;;;5064344;28;20094;-74
2022/11/24 14:34:26;;;;;;;9.40;1.25;;;;;;;;;;5062212;28;20800;-74
2022/11/24 14:36:53;;;;;;;14.95;2.45;;;;;;;;;;5022726;28;20071;-74
2022/11/24 14:39:23;;;;;;;4.43;1.10;;;;;;;;;;5059492;28;20025;-74
2022/11/24 14:41:51;;;;;;;7.75;1.85;;;;;;;;;;5061403;28;20033;-74
2022/11/24 14:44:20;;;;;;;9.15;2.25;;;;;;;;;;5066806;28;20075;-74
2022/11/24 14:46:46;;;;;;;7.13;0.93;;;;;;;;;;5072056;28;20056;-74